sensor_id;sensor_type;location;lat;lon;timestamp;P1;durP1;ratioP1;P2;durP2;ratioP2
12908;SDS011;6522;49.622;6.126;2023-05-10T00:01:10;13.02;;;9.07;;
12908;SDS011;6522;49.622;6.126;2023-05-10T00:03:56;12.70;;;9.45;;
12908;SDS011;6522;49.622;6.126;2023-05-10T00:06:43;15.98;;;10.88;;
12908;SDS011;6522;49.622;6.126;2023-05-10T00:09:30;14.20;;;9.85;;
12908;SDS011;6522;49.622;6.126;2023-05-10T00:12:17;14.98;;;10.90;;
12908;SDS011;6522;49.622;6.126;2023-05-10T00:15:04;19.35;;;11.60;;
12908;SDS011;6522;49.622;6.126;2023-05-10T00:17:51;16.25;;;10.70;;
12908;SDS011;6522;49.622;6.126;2023-05-10T00:20:38;19.58;;;12.07;;
12908;SDS011;6522;49.622;6.126;2023-05-10T00:23:24;16.98;;;10.88;;
12908;SDS011;6522;49.622;6.126;2023-05-10T00:26:12;14.75;;;10.77;;
12908;SDS011;6522;49.622;6.126;2023-05-10T00:28:59;22.85;;;11.80;;
12908;SDS011;6522;49.622;6.126;2023-05-10T00:31:46;16.25;;;11.73;;
12908;SDS011;6522;49.622;6.126;2023-05-10T00:34:33;16.98;;;11.63;;
12908;SDS011;6522;49.622;6.126;2023-05-10T00:37:19;18.55;;;12.32;;
12908;SDS011;6522;49.622;6.126;2023-05-10T00:40:06;20.65;;;10.90;;
12908;SDS011;6522;49.622;6.126;2023-05-10T00:42:53;15.82;;;11.80;;
12908;SDS011;6522;49.622;6.126;2023-05-10T00:45:40;19.42;;;11.40;;
12908;SDS011;6522;49.622;6.126;2023-05-10T00:48:28;19.33;;;12.00;;
12908;SDS011;6522;49.622;6.126;2023-05-10T00:51:13;23.20;;;12.00;;
12908;SDS011;6522;49.622;6.126;2023-05-10T00:54:00;15.80;;;10.88;;
12908;SDS011;6522;49.622;6.126;2023-05-10T00:56:47;18.98;;;12.30;;
12908;SDS011;6522;49.622;6.126;2023-05-10T00:59:33;14.18;;;11.02;;
12908;SDS011;6522;49.622;6.126;2023-05-10T01:02:20;17.48;;;11.48;;
12908;SDS011;6522;49.622;6.126;2023-05-10T01:05:07;14.57;;;10.30;;
12908;SDS011;6522;49.622;6.126;2023-05-10T01:07:53;16.00;;;10.60;;
12908;SDS011;6522;49.622;6.126;2023-05-10T01:10:40;14.40;;;10.98;;
12908;SDS011;6522;49.622;6.126;2023-05-10T01:13:37;16.42;;;10.25;;
12908;SDS011;6522;49.622;6.126;2023-05-10T01:16:14;17.37;;;11.73;;
12908;SDS011;6522;49.622;6.126;2023-05-10T01:19:01;14.93;;;10.65;;
12908;SDS011;6522;49.622;6.126;2023-05-10T01:33:43;12.80;;;8.90;;
12908;SDS011;6522;49.622;6.126;2023-05-10T01:36:32;19.52;;;9.50;;
12908;SDS011;6522;49.622;6.126;2023-05-10T01:39:25;14.00;;;9.82;;
12908;SDS011;6522;49.622;6.126;2023-05-10T01:42:12;13.05;;;9.40;;
12908;SDS011;6522;49.622;6.126;2023-05-10T01:44:59;16.17;;;10.75;;
12908;SDS011;6522;49.622;6.126;2023-05-10T01:47:46;13.55;;;10.77;;
12908;SDS011;6522;49.622;6.126;2023-05-10T01:50:31;15.75;;;9.45;;
12908;SDS011;6522;49.622;6.126;2023-05-10T01:53:18;13.98;;;9.65;;
12908;SDS011;6522;49.622;6.126;2023-05-10T01:56:05;14.10;;;9.60;;
12908;SDS011;6522;49.622;6.126;2023-05-10T01:58:52;16.50;;;10.13;;
12908;SDS011;6522;49.622;6.126;2023-05-10T02:01:39;12.73;;;8.77;;
12908;SDS011;6522;49.622;6.126;2023-05-10T02:04:25;11.98;;;9.18;;
12908;SDS011;6522;49.622;6.126;2023-05-10T02:07:12;14.63;;;7.95;;
12908;SDS011;6522;49.622;6.126;2023-05-10T02:10:00;9.48;;;7.43;;
12908;SDS011;6522;49.622;6.126;2023-05-10T02:12:47;9.38;;;5.72;;
12908;SDS011;6522;49.622;6.126;2023-05-10T02:15:33;7.87;;;6.43;;
12908;SDS011;6522;49.622;6.126;2023-05-10T02:18:20;9.45;;;6.93;;
12908;SDS011;6522;49.622;6.126;2023-05-10T02:21:06;7.78;;;5.30;;
12908;SDS011;6522;49.622;6.126;2023-05-10T02:23:53;9.23;;;6.47;;
12908;SDS011;6522;49.622;6.126;2023-05-10T02:26:39;9.63;;;6.40;;
12908;SDS011;6522;49.622;6.126;2023-05-10T02:29:26;7.97;;;5.80;;
12908;SDS011;6522;49.622;6.126;2023-05-10T02:32:13;6.43;;;5.65;;
12908;SDS011;6522;49.622;6.126;2023-05-10T02:35:01;6.60;;;5.43;;
12908;SDS011;6522;49.622;6.126;2023-05-10T02:37:47;5.45;;;4.90;;
12908;SDS011;6522;49.622;6.126;2023-05-10T02:40:34;6.75;;;4.85;;
12908;SDS011;6522;49.622;6.126;2023-05-10T02:43:20;5.57;;;4.55;;
12908;SDS011;6522;49.622;6.126;2023-05-10T02:46:07;4.78;;;4.30;;
12908;SDS011;6522;49.622;6.126;2023-05-10T02:48:54;6.95;;;4.45;;
12908;SDS011;6522;49.622;6.126;2023-05-10T02:51:44;11.30;;;5.15;;
12908;SDS011;6522;49.622;6.126;2023-05-10T02:54:32;5.70;;;4.30;;
12908;SDS011;6522;49.622;6.126;2023-05-10T02:57:18;5.05;;;4.15;;
12908;SDS011;6522;49.622;6.126;2023-05-10T03:00:04;10.88;;;4.40;;
12908;SDS011;6522;49.622;6.126;2023-05-10T03:02:51;4.25;;;3.75;;
12908;SDS011;6522;49.622;6.126;2023-05-10T03:05:38;5.15;;;4.20;;
12908;SDS011;6522;49.622;6.126;2023-05-10T03:08:25;5.50;;;4.95;;
12908;SDS011;6522;49.622;6.126;2023-05-10T03:14:07;5.12;;;4.35;;
12908;SDS011;6522;49.622;6.126;2023-05-10T03:16:56;6.55;;;4.62;;
12908;SDS011;6522;49.622;6.126;2023-05-10T03:19:41;6.53;;;4.53;;
12908;SDS011;6522;49.622;6.126;2023-05-10T03:22:34;6.25;;;4.60;;
12908;SDS011;6522;49.622;6.126;2023-05-10T03:25:19;6.62;;;4.70;;
12908;SDS011;6522;49.622;6.126;2023-05-10T03:28:05;5.30;;;3.92;;
12908;SDS011;6522;49.622;6.126;2023-05-10T03:30:52;5.70;;;4.12;;
12908;SDS011;6522;49.622;6.126;2023-05-10T03:33:48;5.80;;;3.95;;
12908;SDS011;6522;49.622;6.126;2023-05-10T03:36:35;4.62;;;4.22;;
12908;SDS011;6522;49.622;6.126;2023-05-10T03:39:21;3.55;;;3.20;;
12908;SDS011;6522;49.622;6.126;2023-05-10T03:42:08;7.12;;;3.03;;
12908;SDS011;6522;49.622;6.126;2023-05-10T03:44:54;3.17;;;2.72;;
12908;SDS011;6522;49.622;6.126;2023-05-10T03:47:41;3.85;;;3.42;;
12908;SDS011;6522;49.622;6.126;2023-05-10T03:50:28;4.25;;;3.55;;
12908;SDS011;6522;49.622;6.126;2023-05-10T03:53:14;3.83;;;3.42;;
12908;SDS011;6522;49.622;6.126;2023-05-10T03:56:01;4.45;;;3.85;;
12908;SDS011;6522;49.622;6.126;2023-05-10T03:58:48;5.25;;;3.50;;
12908;SDS011;6522;49.622;6.126;2023-05-10T04:01:34;9.30;;;4.00;;
12908;SDS011;6522;49.622;6.126;2023-05-10T04:04:22;7.20;;;4.97;;
12908;SDS011;6522;49.622;6.126;2023-05-10T04:07:08;6.65;;;5.00;;
12908;SDS011;6522;49.622;6.126;2023-05-10T04:09:55;5.30;;;4.50;;
12908;SDS011;6522;49.622;6.126;2023-05-10T04:12:42;4.60;;;4.15;;
12908;SDS011;6522;49.622;6.126;2023-05-10T04:15:28;4.20;;;3.50;;
12908;SDS011;6522;49.622;6.126;2023-05-10T04:18:15;4.78;;;4.22;;
12908;SDS011;6522;49.622;6.126;2023-05-10T04:21:02;4.05;;;3.65;;
12908;SDS011;6522;49.622;6.126;2023-05-10T04:23:49;3.67;;;2.67;;
12908;SDS011;6522;49.622;6.126;2023-05-10T04:26:35;3.45;;;3.15;;
12908;SDS011;6522;49.622;6.126;2023-05-10T04:29:22;5.00;;;3.97;;
12908;SDS011;6522;49.622;6.126;2023-05-10T04:32:08;4.43;;;3.65;;
12908;SDS011;6522;49.622;6.126;2023-05-10T04:34:55;4.85;;;4.32;;
12908;SDS011;6522;49.622;6.126;2023-05-10T04:37:41;5.65;;;4.20;;
12908;SDS011;6522;49.622;6.126;2023-05-10T04:40:28;6.47;;;5.50;;
12908;SDS011;6522;49.622;6.126;2023-05-10T04:43:15;6.05;;;5.37;;
12908;SDS011;6522;49.622;6.126;2023-05-10T04:46:02;5.80;;;4.95;;
12908;SDS011;6522;49.622;6.126;2023-05-10T04:48:48;7.55;;;5.07;;
12908;SDS011;6522;49.622;6.126;2023-05-10T04:51:35;5.15;;;4.53;;
12908;SDS011;6522;49.622;6.126;2023-05-10T04:54:22;6.12;;;5.37;;
12908;SDS011;6522;49.622;6.126;2023-05-10T04:57:08;6.15;;;5.28;;
12908;SDS011;6522;49.622;6.126;2023-05-10T04:59:55;4.90;;;4.12;;
12908;SDS011;6522;49.622;6.126;2023-05-10T05:02:42;6.62;;;4.80;;
12908;SDS011;6522;49.622;6.126;2023-05-10T05:05:28;5.68;;;4.70;;
12908;SDS011;6522;49.622;6.126;2023-05-10T05:08:15;8.27;;;5.68;;
12908;SDS011;6522;49.622;6.126;2023-05-10T05:11:02;7.12;;;4.95;;
12908;SDS011;6522;49.622;6.126;2023-05-10T05:13:49;7.47;;;5.65;;
12908;SDS011;6522;49.622;6.126;2023-05-10T05:16:36;5.95;;;5.00;;
12908;SDS011;6522;49.622;6.126;2023-05-10T05:19:23;5.47;;;4.60;;
12908;SDS011;6522;49.622;6.126;2023-05-10T05:22:09;5.90;;;4.47;;
12908;SDS011;6522;49.622;6.126;2023-05-10T05:24:56;7.28;;;4.03;;
12908;SDS011;6522;49.622;6.126;2023-05-10T05:27:43;4.32;;;2.90;;
12908;SDS011;6522;49.622;6.126;2023-05-10T05:30:30;5.12;;;3.15;;
12908;SDS011;6522;49.622;6.126;2023-05-10T05:33:16;4.25;;;3.33;;
12908;SDS011;6522;49.622;6.126;2023-05-10T05:36:03;3.45;;;3.15;;
12908;SDS011;6522;49.622;6.126;2023-05-10T05:38:50;4.07;;;3.55;;
12908;SDS011;6522;49.622;6.126;2023-05-10T05:41:36;3.53;;;3.00;;
12908;SDS011;6522;49.622;6.126;2023-05-10T05:44:23;3.20;;;2.90;;
12908;SDS011;6522;49.622;6.126;2023-05-10T05:47:10;3.47;;;2.40;;
12908;SDS011;6522;49.622;6.126;2023-05-10T05:49:57;2.55;;;2.00;;
12908;SDS011;6522;49.622;6.126;2023-05-10T05:52:43;3.47;;;2.30;;
12908;SDS011;6522;49.622;6.126;2023-05-10T05:55:30;2.40;;;2.20;;
12908;SDS011;6522;49.622;6.126;2023-05-10T05:58:17;2.58;;;1.00;;
12908;SDS011;6522;49.622;6.126;2023-05-10T06:01:04;3.40;;;2.12;;
12908;SDS011;6522;49.622;6.126;2023-05-10T06:03:51;1.98;;;1.80;;
12908;SDS011;6522;49.622;6.126;2023-05-10T06:06:38;2.95;;;0.90;;
12908;SDS011;6522;49.622;6.126;2023-05-10T06:09:24;1.90;;;1.80;;
12908;SDS011;6522;49.622;6.126;2023-05-10T06:12:11;4.40;;;1.73;;
12908;SDS011;6522;49.622;6.126;2023-05-10T06:14:58;2.60;;;2.15;;
12908;SDS011;6522;49.622;6.126;2023-05-10T06:17:45;2.00;;;1.70;;
12908;SDS011;6522;49.622;6.126;2023-05-10T06:20:31;3.17;;;1.70;;
12908;SDS011;6522;49.622;6.126;2023-05-10T06:23:18;2.12;;;1.87;;
12908;SDS011;6522;49.622;6.126;2023-05-10T06:26:05;2.45;;;1.65;;
12908;SDS011;6522;49.622;6.126;2023-05-10T06:28:51;6.15;;;1.92;;
12908;SDS011;6522;49.622;6.126;2023-05-10T06:31:38;2.60;;;1.70;;
12908;SDS011;6522;49.622;6.126;2023-05-10T06:34:25;3.70;;;2.45;;
12908;SDS011;6522;49.622;6.126;2023-05-10T06:37:12;3.67;;;2.12;;
12908;SDS011;6522;49.622;6.126;2023-05-10T06:39:58;3.55;;;2.05;;
12908;SDS011;6522;49.622;6.126;2023-05-10T06:42:45;4.22;;;2.37;;
12908;SDS011;6522;49.622;6.126;2023-05-10T06:45:31;2.95;;;2.37;;
12908;SDS011;6522;49.622;6.126;2023-05-10T06:48:19;2.90;;;2.60;;
12908;SDS011;6522;49.622;6.126;2023-05-10T06:51:05;2.95;;;2.50;;
12908;SDS011;6522;49.622;6.126;2023-05-10T06:53:52;2.17;;;1.98;;
12908;SDS011;6522;49.622;6.126;2023-05-10T06:56:39;4.50;;;3.30;;
12908;SDS011;6522;49.622;6.126;2023-05-10T06:59:25;3.00;;;2.53;;
12908;SDS011;6522;49.622;6.126;2023-05-10T07:02:12;2.92;;;2.62;;
12908;SDS011;6522;49.622;6.126;2023-05-10T07:04:59;2.62;;;2.42;;
12908;SDS011;6522;49.622;6.126;2023-05-10T07:07:45;3.50;;;2.60;;
12908;SDS011;6522;49.622;6.126;2023-05-10T07:10:32;2.50;;;2.30;;
12908;SDS011;6522;49.622;6.126;2023-05-10T07:13:19;2.95;;;2.10;;
12908;SDS011;6522;49.622;6.126;2023-05-10T07:16:05;5.95;;;2.75;;
12908;SDS011;6522;49.622;6.126;2023-05-10T07:18:52;3.67;;;2.65;;
12908;SDS011;6522;49.622;6.126;2023-05-10T07:21:39;3.95;;;2.45;;
12908;SDS011;6522;49.622;6.126;2023-05-10T07:24:26;4.40;;;2.40;;
12908;SDS011;6522;49.622;6.126;2023-05-10T07:27:13;2.75;;;2.40;;
12908;SDS011;6522;49.622;6.126;2023-05-10T07:29:59;3.03;;;2.70;;
12908;SDS011;6522;49.622;6.126;2023-05-10T07:32:46;3.00;;;2.70;;
12908;SDS011;6522;49.622;6.126;2023-05-10T07:35:33;4.70;;;2.90;;
12908;SDS011;6522;49.622;6.126;2023-05-10T07:38:20;2.50;;;2.20;;
12908;SDS011;6522;49.622;6.126;2023-05-10T07:41:07;7.07;;;2.05;;
12908;SDS011;6522;49.622;6.126;2023-05-10T07:43:53;3.20;;;2.10;;
12908;SDS011;6522;49.622;6.126;2023-05-10T07:46:40;3.03;;;1.83;;
12908;SDS011;6522;49.622;6.126;2023-05-10T07:49:27;2.30;;;2.10;;
12908;SDS011;6522;49.622;6.126;2023-05-10T07:52:14;2.50;;;2.00;;
12908;SDS011;6522;49.622;6.126;2023-05-10T07:55:00;4.55;;;2.10;;
12908;SDS011;6522;49.622;6.126;2023-05-10T07:57:47;2.50;;;1.92;;
12908;SDS011;6522;49.622;6.126;2023-05-10T08:00:34;2.65;;;2.25;;
12908;SDS011;6522;49.622;6.126;2023-05-10T08:03:20;3.00;;;2.28;;
12908;SDS011;6522;49.622;6.126;2023-05-10T08:06:07;4.15;;;2.28;;
12908;SDS011;6522;49.622;6.126;2023-05-10T08:08:54;5.15;;;2.70;;
12908;SDS011;6522;49.622;6.126;2023-05-10T08:11:40;5.25;;;3.20;;
12908;SDS011;6522;49.622;6.126;2023-05-10T08:14:28;4.15;;;2.92;;
12908;SDS011;6522;49.622;6.126;2023-05-10T08:17:14;4.22;;;3.35;;
12908;SDS011;6522;49.622;6.126;2023-05-10T08:20:00;5.15;;;3.67;;
12908;SDS011;6522;49.622;6.126;2023-05-10T08:22:47;4.40;;;3.83;;
12908;SDS011;6522;49.622;6.126;2023-05-10T08:25:34;4.37;;;3.30;;
12908;SDS011;6522;49.622;6.126;2023-05-10T08:28:20;5.57;;;3.75;;
12908;SDS011;6522;49.622;6.126;2023-05-10T08:31:07;5.05;;;3.78;;
12908;SDS011;6522;49.622;6.126;2023-05-10T08:33:54;3.60;;;3.30;;
12908;SDS011;6522;49.622;6.126;2023-05-10T08:36:41;5.28;;;3.67;;
12908;SDS011;6522;49.622;6.126;2023-05-10T08:39:28;4.55;;;3.62;;
12908;SDS011;6522;49.622;6.126;2023-05-10T08:42:16;4.50;;;4.10;;
12908;SDS011;6522;49.622;6.126;2023-05-10T08:45:01;4.90;;;4.03;;
12908;SDS011;6522;49.622;6.126;2023-05-10T08:47:48;4.37;;;4.00;;
12908;SDS011;6522;49.622;6.126;2023-05-10T08:50:35;5.18;;;4.68;;
12908;SDS011;6522;49.622;6.126;2023-05-10T08:53:22;4.95;;;4.45;;
12908;SDS011;6522;49.622;6.126;2023-05-10T08:56:08;6.75;;;4.70;;
12908;SDS011;6522;49.622;6.126;2023-05-10T08:58:55;5.00;;;4.60;;
12908;SDS011;6522;49.622;6.126;2023-05-10T09:01:42;4.68;;;4.15;;
12908;SDS011;6522;49.622;6.126;2023-05-10T09:04:28;5.87;;;4.82;;
12908;SDS011;6522;49.622;6.126;2023-05-10T09:07:15;5.95;;;3.62;;
12908;SDS011;6522;49.622;6.126;2023-05-10T09:10:02;6.50;;;5.95;;
12908;SDS011;6522;49.622;6.126;2023-05-10T09:12:50;8.13;;;7.50;;
12908;SDS011;6522;49.622;6.126;2023-05-10T09:15:36;8.40;;;7.70;;
12908;SDS011;6522;49.622;6.126;2023-05-10T09:18:23;8.48;;;7.30;;
12908;SDS011;6522;49.622;6.126;2023-05-10T09:21:10;6.50;;;5.90;;
12908;SDS011;6522;49.622;6.126;2023-05-10T09:23:57;5.82;;;4.00;;
12908;SDS011;6522;49.622;6.126;2023-05-10T09:26:47;7.53;;;6.80;;
12908;SDS011;6522;49.622;6.126;2023-05-10T09:29:41;7.43;;;5.43;;
12908;SDS011;6522;49.622;6.126;2023-05-10T09:32:48;6.72;;;5.53;;
12908;SDS011;6522;49.622;6.126;2023-05-10T09:35:14;6.68;;;5.20;;
12908;SDS011;6522;49.622;6.126;2023-05-10T09:38:02;6.53;;;4.45;;
12908;SDS011;6522;49.622;6.126;2023-05-10T09:40:53;5.57;;;4.15;;
12908;SDS011;6522;49.622;6.126;2023-05-10T09:43:41;6.97;;;3.67;;
12908;SDS011;6522;49.622;6.126;2023-05-10T09:46:28;5.07;;;4.57;;
12908;SDS011;6522;49.622;6.126;2023-05-10T09:49:15;4.35;;;4.05;;
12908;SDS011;6522;49.622;6.126;2023-05-10T09:52:02;4.55;;;3.47;;
12908;SDS011;6522;49.622;6.126;2023-05-10T09:54:52;13.62;;;4.40;;
12908;SDS011;6522;49.622;6.126;2023-05-10T09:57:38;7.93;;;4.78;;
12908;SDS011;6522;49.622;6.126;2023-05-10T10:00:25;5.35;;;4.97;;
12908;SDS011;6522;49.622;6.126;2023-05-10T10:03:19;6.12;;;5.57;;
12908;SDS011;6522;49.622;6.126;2023-05-10T10:06:07;7.53;;;6.90;;
12908;SDS011;6522;49.622;6.126;2023-05-10T10:08:52;8.27;;;7.78;;
12908;SDS011;6522;49.622;6.126;2023-05-10T10:11:39;7.55;;;6.90;;
12908;SDS011;6522;49.622;6.126;2023-05-10T10:14:25;8.95;;;8.43;;
12908;SDS011;6522;49.622;6.126;2023-05-10T10:17:12;9.00;;;8.35;;
12908;SDS011;6522;49.622;6.126;2023-05-10T10:19:59;5.75;;;5.35;;
12908;SDS011;6522;49.622;6.126;2023-05-10T10:22:46;10.20;;;9.40;;
12908;SDS011;6522;49.622;6.126;2023-05-10T10:25:33;10.00;;;9.43;;
12908;SDS011;6522;49.622;6.126;2023-05-10T10:31:24;9.10;;;8.60;;
12908;SDS011;6522;49.622;6.126;2023-05-10T10:34:05;9.20;;;8.48;;
12908;SDS011;6522;49.622;6.126;2023-05-10T10:36:52;8.80;;;8.13;;
12908;SDS011;6522;49.622;6.126;2023-05-10T10:39:38;9.52;;;8.93;;
12908;SDS011;6522;49.622;6.126;2023-05-10T10:42:43;10.32;;;9.73;;
12908;SDS011;6522;49.622;6.126;2023-05-10T10:45:30;8.85;;;8.45;;
12908;SDS011;6522;49.622;6.126;2023-05-10T10:48:22;10.30;;;9.70;;
12908;SDS011;6522;49.622;6.126;2023-05-10T10:51:09;11.85;;;11.25;;
12908;SDS011;6522;49.622;6.126;2023-05-10T10:53:56;15.13;;;14.33;;
12908;SDS011;6522;49.622;6.126;2023-05-10T10:56:44;14.10;;;13.20;;
12908;SDS011;6522;49.622;6.126;2023-05-10T10:59:29;14.30;;;13.50;;
12908;SDS011;6522;49.622;6.126;2023-05-10T11:02:42;15.80;;;15.00;;
12908;SDS011;6522;49.622;6.126;2023-05-10T11:08:26;9.98;;;9.43;;
12908;SDS011;6522;49.622;6.126;2023-05-10T11:11:14;13.95;;;12.95;;
12908;SDS011;6522;49.622;6.126;2023-05-10T11:14:06;8.90;;;8.20;;
12908;SDS011;6522;49.622;6.126;2023-05-10T11:16:49;13.10;;;12.40;;
12908;SDS011;6522;49.622;6.126;2023-05-10T11:19:36;12.23;;;11.63;;
12908;SDS011;6522;49.622;6.126;2023-05-10T11:22:23;12.48;;;11.77;;
12908;SDS011;6522;49.622;6.126;2023-05-10T11:25:10;12.50;;;11.90;;
12908;SDS011;6522;49.622;6.126;2023-05-10T11:27:57;13.43;;;12.50;;
12908;SDS011;6522;49.622;6.126;2023-05-10T11:30:44;12.77;;;11.90;;
12908;SDS011;6522;49.622;6.126;2023-05-10T11:33:30;11.95;;;11.35;;
12908;SDS011;6522;49.622;6.126;2023-05-10T11:36:18;11.25;;;10.75;;
12908;SDS011;6522;49.622;6.126;2023-05-10T11:39:04;10.18;;;9.55;;
12908;SDS011;6522;49.622;6.126;2023-05-10T11:41:51;8.20;;;7.80;;
12908;SDS011;6522;49.622;6.126;2023-05-10T11:44:38;8.18;;;7.70;;
12908;SDS011;6522;49.622;6.126;2023-05-10T11:47:24;7.93;;;7.32;;
12908;SDS011;6522;49.622;6.126;2023-05-10T11:50:11;9.23;;;8.57;;
12908;SDS011;6522;49.622;6.126;2023-05-10T11:52:58;10.48;;;9.77;;
12908;SDS011;6522;49.622;6.126;2023-05-10T11:55:44;10.27;;;9.68;;
12908;SDS011;6522;49.622;6.126;2023-05-10T11:58:31;8.15;;;7.55;;
12908;SDS011;6522;49.622;6.126;2023-05-10T12:01:18;11.40;;;10.80;;
12908;SDS011;6522;49.622;6.126;2023-05-10T12:04:05;11.07;;;10.30;;
12908;SDS011;6522;49.622;6.126;2023-05-10T12:06:52;10.70;;;10.20;;
12908;SDS011;6522;49.622;6.126;2023-05-10T12:09:55;10.93;;;10.38;;
12908;SDS011;6522;49.622;6.126;2023-05-10T12:13:03;11.93;;;10.93;;
12908;SDS011;6522;49.622;6.126;2023-05-10T12:15:23;9.95;;;9.55;;
12908;SDS011;6522;49.622;6.126;2023-05-10T12:18:09;11.00;;;10.50;;
12908;SDS011;6522;49.622;6.126;2023-05-10T12:20:55;11.35;;;10.70;;
12908;SDS011;6522;49.622;6.126;2023-05-10T12:23:43;13.00;;;12.40;;
12908;SDS011;6522;49.622;6.126;2023-05-10T12:26:30;13.73;;;13.13;;
12908;SDS011;6522;49.622;6.126;2023-05-10T12:29:17;15.13;;;14.35;;
12908;SDS011;6522;49.622;6.126;2023-05-10T12:32:03;15.27;;;14.60;;
12908;SDS011;6522;49.622;6.126;2023-05-10T12:34:51;16.73;;;16.03;;
12908;SDS011;6522;49.622;6.126;2023-05-10T12:37:36;15.40;;;14.40;;
12908;SDS011;6522;49.622;6.126;2023-05-10T12:40:23;15.67;;;14.87;;
12908;SDS011;6522;49.622;6.126;2023-05-10T12:43:10;16.42;;;15.63;;
12908;SDS011;6522;49.622;6.126;2023-05-10T12:45:56;19.50;;;18.50;;
12908;SDS011;6522;49.622;6.126;2023-05-10T12:48:43;17.20;;;16.10;;
12908;SDS011;6522;49.622;6.126;2023-05-10T12:51:29;16.90;;;16.00;;
12908;SDS011;6522;49.622;6.126;2023-05-10T12:54:16;20.30;;;19.30;;
12908;SDS011;6522;49.622;6.126;2023-05-10T12:57:03;17.17;;;16.27;;
12908;SDS011;6522;49.622;6.126;2023-05-10T12:59:49;18.00;;;17.30;;
12908;SDS011;6522;49.622;6.126;2023-05-10T13:02:36;16.50;;;15.70;;
12908;SDS011;6522;49.622;6.126;2023-05-10T13:05:23;18.40;;;17.60;;
12908;SDS011;6522;49.622;6.126;2023-05-10T13:08:09;18.60;;;17.43;;
12908;SDS011;6522;49.622;6.126;2023-05-10T13:10:56;18.00;;;17.20;;
12908;SDS011;6522;49.622;6.126;2023-05-10T13:13:43;19.13;;;18.33;;
12908;SDS011;6522;49.622;6.126;2023-05-10T13:16:29;16.40;;;15.60;;
12908;SDS011;6522;49.622;6.126;2023-05-10T13:19:16;19.00;;;18.00;;
12908;SDS011;6522;49.622;6.126;2023-05-10T13:22:02;18.97;;;18.07;;
12908;SDS011;6522;49.622;6.126;2023-05-10T13:24:49;16.30;;;15.50;;
12908;SDS011;6522;49.622;6.126;2023-05-10T13:27:36;16.20;;;15.30;;
12908;SDS011;6522;49.622;6.126;2023-05-10T13:30:22;19.20;;;18.30;;
12908;SDS011;6522;49.622;6.126;2023-05-10T13:33:09;18.50;;;17.70;;
12908;SDS011;6522;49.622;6.126;2023-05-10T13:35:57;18.80;;;17.90;;
12908;SDS011;6522;49.622;6.126;2023-05-10T13:38:43;18.40;;;17.60;;
12908;SDS011;6522;49.622;6.126;2023-05-10T13:41:30;19.30;;;18.30;;
12908;SDS011;6522;49.622;6.126;2023-05-10T13:44:17;19.57;;;18.77;;
12908;SDS011;6522;49.622;6.126;2023-05-10T13:47:04;16.30;;;15.50;;
12908;SDS011;6522;49.622;6.126;2023-05-10T13:49:51;18.20;;;17.37;;
12908;SDS011;6522;49.622;6.126;2023-05-10T13:52:37;15.30;;;14.60;;
12908;SDS011;6522;49.622;6.126;2023-05-10T13:55:24;15.60;;;14.80;;
12908;SDS011;6522;49.622;6.126;2023-05-10T13:58:11;18.20;;;17.40;;
12908;SDS011;6522;49.622;6.126;2023-05-10T14:00:57;14.90;;;14.10;;
12908;SDS011;6522;49.622;6.126;2023-05-10T14:03:44;15.10;;;14.30;;
12908;SDS011;6522;49.622;6.126;2023-05-10T14:06:31;17.77;;;16.87;;
12908;SDS011;6522;49.622;6.126;2023-05-10T14:09:18;15.70;;;14.90;;
12908;SDS011;6522;49.622;6.126;2023-05-10T14:12:04;15.60;;;14.80;;
12908;SDS011;6522;49.622;6.126;2023-05-10T14:14:51;17.90;;;17.10;;
12908;SDS011;6522;49.622;6.126;2023-05-10T14:17:38;15.23;;;14.50;;
12908;SDS011;6522;49.622;6.126;2023-05-10T14:20:24;15.60;;;14.80;;
12908;SDS011;6522;49.622;6.126;2023-05-10T14:23:11;17.50;;;16.70;;
12908;SDS011;6522;49.622;6.126;2023-05-10T14:25:58;15.40;;;14.50;;
12908;SDS011;6522;49.622;6.126;2023-05-10T14:28:44;15.48;;;14.68;;
12908;SDS011;6522;49.622;6.126;2023-05-10T14:31:31;17.80;;;17.10;;
12908;SDS011;6522;49.622;6.126;2023-05-10T14:34:17;15.52;;;14.80;;
12908;SDS011;6522;49.622;6.126;2023-05-10T14:37:04;14.77;;;14.00;;
12908;SDS011;6522;49.622;6.126;2023-05-10T14:39:50;15.25;;;14.45;;
12908;SDS011;6522;49.622;6.126;2023-05-10T14:42:37;17.57;;;16.87;;
12908;SDS011;6522;49.622;6.126;2023-05-10T14:45:25;15.30;;;14.60;;
12908;SDS011;6522;49.622;6.126;2023-05-10T14:48:11;15.48;;;14.57;;
12908;SDS011;6522;49.622;6.126;2023-05-10T14:50:58;18.07;;;17.30;;
12908;SDS011;6522;49.622;6.126;2023-05-10T14:53:45;14.85;;;14.15;;
12908;SDS011;6522;49.622;6.126;2023-05-10T14:56:31;14.90;;;14.20;;
12908;SDS011;6522;49.622;6.126;2023-05-10T14:59:20;18.10;;;17.30;;
12908;SDS011;6522;49.622;6.126;2023-05-10T15:02:05;15.23;;;14.48;;
12908;SDS011;6522;49.622;6.126;2023-05-10T15:04:52;15.70;;;14.90;;
12908;SDS011;6522;49.622;6.126;2023-05-10T15:07:39;18.40;;;17.60;;
12908;SDS011;6522;49.622;6.126;2023-05-10T15:10:26;15.50;;;14.70;;
12908;SDS011;6522;49.622;6.126;2023-05-10T15:13:12;14.85;;;14.05;;
12908;SDS011;6522;49.622;6.126;2023-05-10T15:15:59;17.70;;;17.00;;
12908;SDS011;6522;49.622;6.126;2023-05-10T15:18:46;14.63;;;13.93;;
12908;SDS011;6522;49.622;6.126;2023-05-10T15:21:33;14.65;;;13.85;;
12908;SDS011;6522;49.622;6.126;2023-05-10T15:24:19;16.97;;;16.20;;
12908;SDS011;6522;49.622;6.126;2023-05-10T15:27:06;17.27;;;16.52;;
12908;SDS011;6522;49.622;6.126;2023-05-10T15:29:53;17.40;;;16.60;;
12908;SDS011;6522;49.622;6.126;2023-05-10T15:32:39;17.20;;;16.50;;
12908;SDS011;6522;49.622;6.126;2023-05-10T15:35:26;17.30;;;16.40;;
12908;SDS011;6522;49.622;6.126;2023-05-10T15:38:13;16.02;;;15.32;;
12908;SDS011;6522;49.622;6.126;2023-05-10T15:41:00;15.57;;;14.98;;
12908;SDS011;6522;49.622;6.126;2023-05-10T15:43:47;15.82;;;15.05;;
12908;SDS011;6522;49.622;6.126;2023-05-10T15:46:34;14.63;;;14.02;;
12908;SDS011;6522;49.622;6.126;2023-05-10T15:49:21;11.40;;;10.90;;
12908;SDS011;6522;49.622;6.126;2023-05-10T15:52:07;14.87;;;14.25;;
12908;SDS011;6522;49.622;6.126;2023-05-10T15:54:54;15.65;;;14.68;;
12908;SDS011;6522;49.622;6.126;2023-05-10T15:57:41;14.90;;;14.20;;
12908;SDS011;6522;49.622;6.126;2023-05-10T16:00:28;14.35;;;13.75;;
12908;SDS011;6522;49.622;6.126;2023-05-10T16:03:14;14.55;;;13.95;;
12908;SDS011;6522;49.622;6.126;2023-05-10T16:06:01;15.25;;;14.45;;
12908;SDS011;6522;49.622;6.126;2023-05-10T16:08:48;15.15;;;14.48;;
12908;SDS011;6522;49.622;6.126;2023-05-10T16:11:35;14.55;;;13.95;;
12908;SDS011;6522;49.622;6.126;2023-05-10T16:14:22;15.45;;;14.65;;
12908;SDS011;6522;49.622;6.126;2023-05-10T16:17:08;15.40;;;14.60;;
12908;SDS011;6522;49.622;6.126;2023-05-10T16:19:55;13.40;;;12.80;;
12908;SDS011;6522;49.622;6.126;2023-05-10T16:22:42;14.60;;;14.00;;
12908;SDS011;6522;49.622;6.126;2023-05-10T16:25:29;14.40;;;13.62;;
12908;SDS011;6522;49.622;6.126;2023-05-10T16:28:16;11.60;;;11.00;;
12908;SDS011;6522;49.622;6.126;2023-05-10T16:31:02;8.73;;;8.13;;
12908;SDS011;6522;49.622;6.126;2023-05-10T16:33:49;11.40;;;10.80;;
12908;SDS011;6522;49.622;6.126;2023-05-10T16:36:36;11.35;;;10.52;;
12908;SDS011;6522;49.622;6.126;2023-05-10T16:39:23;5.40;;;4.95;;
12908;SDS011;6522;49.622;6.126;2023-05-10T16:42:09;4.30;;;3.90;;
12908;SDS011;6522;49.622;6.126;2023-05-10T16:44:56;7.35;;;6.65;;
12908;SDS011;6522;49.622;6.126;2023-05-10T16:47:43;6.10;;;5.60;;
12908;SDS011;6522;49.622;6.126;2023-05-10T16:50:30;7.10;;;5.95;;
12908;SDS011;6522;49.622;6.126;2023-05-10T16:53:16;6.80;;;5.70;;
12908;SDS011;6522;49.622;6.126;2023-05-10T16:56:03;4.97;;;4.68;;
12908;SDS011;6522;49.622;6.126;2023-05-10T16:58:50;3.90;;;3.60;;
12908;SDS011;6522;49.622;6.126;2023-05-10T17:01:37;3.75;;;3.15;;
12908;SDS011;6522;49.622;6.126;2023-05-10T17:04:24;5.72;;;3.12;;
12908;SDS011;6522;49.622;6.126;2023-05-10T17:07:11;4.50;;;4.20;;
12908;SDS011;6522;49.622;6.126;2023-05-10T17:09:57;4.40;;;4.10;;